Orbital elements of GLOBALSTAR M078
| Launched | 5 February 2013 |
| Flight ended | – |
| Launch site | Tyuratam Missile and Space Center, Kazakhstan (Also known as Baikonur Cosmodrome) |
| Owner | Globalstar |
| NORAD ID | 39076 |
| Date fetched |
Epoch osculation |
Inc. [°] |
Ecc. | RA asc node [hr] |
Arg Peri. [°] |
Mean anom [°] |
Mean motion [rev/day] |
Abs. mag |
| Date fetched |
Epoch osculation |
Inc. [°] |
Ecc. | RA asc node [hr] |
Arg Peri. [°] |
Mean anom [°] |
Mean motion [rev/day] |
Abs. mag |
| 2026 May 01 17:56 | 2026 May 01 03:59:15 | 51.9878 | 0.00010 | 4.4532 | 133.2878 | 226.8071 | 12.62266 | 7.500 |
| 2026 Apr 30 17:56 | 2026 Apr 30 05:10:57 | 51.9876 | 0.00010 | 4.6461 | 132.1395 | 226.8071 | 12.62266 | 7.500 |
| 2026 Apr 29 17:57 | 2026 Apr 29 12:04:43 | 51.9874 | 0.00010 | 4.7907 | 131.3893 | 226.8071 | 12.62266 | 7.500 |
| 2026 Apr 28 17:56 | 2026 Apr 28 05:40:19 | 51.9872 | 0.00010 | 5.0480 | 130.1309 | 226.8071 | 12.62266 | 7.500 |
| 2026 Apr 27 17:58 | 2026 Apr 27 04:58:00 | 51.9870 | 0.00010 | 5.2570 | 129.2195 | 226.8071 | 12.62266 | 7.500 |
| 2026 Apr 26 17:58 | 2026 Apr 26 06:09:42 | 51.9867 | 0.00010 | 5.4499 | 128.2942 | 226.8071 | 12.62266 | 7.500 |
| 2026 Apr 25 17:58 | 2026 Apr 25 07:21:24 | 51.9865 | 0.00011 | 5.6428 | 127.2568 | 226.8071 | 12.62266 | 7.500 |
| 2026 Apr 24 17:59 | 2026 Apr 24 08:33:06 | 51.9863 | 0.00011 | 5.8357 | 126.4692 | 226.8071 | 12.62266 | 7.500 |
| 2026 Apr 23 17:57 | 2026 Apr 22 22:20:39 | 51.9861 | 0.00011 | 6.1251 | 125.4673 | 226.8071 | 12.62266 | 7.500 |
| 2026 Apr 22 17:57 | 2026 Apr 22 05:14:25 | 51.9860 | 0.00011 | 6.2698 | 125.2926 | 226.8071 | 12.62266 | 7.500 |
| 2026 Apr 21 17:57 | 2026 Apr 21 06:26:07 | 51.9855 | 0.00011 | 6.4627 | 123.8015 | 226.8071 | 12.62266 | 7.500 |
| 2026 Apr 20 17:57 | 2026 Apr 20 05:43:48 | 51.9853 | 0.00011 | 6.6717 | 123.2426 | 226.8071 | 12.62266 | 7.500 |
| 2026 Apr 19 17:58 | 2026 Apr 19 06:55:30 | 51.9861 | 0.00011 | 6.8645 | 121.4005 | 226.8071 | 12.62266 | 7.500 |
| 2026 Apr 18 17:56 | 2026 Apr 18 00:31:06 | 51.9854 | 0.00011 | 7.1218 | 121.4099 | 226.8071 | 12.62266 | 7.500 |
| 2026 Apr 16 17:57 | 2026 Apr 16 01:00:29 | 51.9851 | 0.00011 | 7.5238 | 120.5486 | 226.8071 | 12.62266 | 7.500 |
| 2026 Apr 14 17:57 | 2026 Apr 14 11:00:00 | 51.9849 | 0.00011 | 7.8453 | 118.8111 | 226.8071 | 12.62266 | 7.500 |
| 2026 Apr 13 17:57 | 2026 Apr 13 00:47:34 | 51.9850 | 0.00011 | 8.1347 | 117.3456 | 226.8071 | 12.62266 | 7.500 |
| 2026 Apr 12 17:57 | 2026 Apr 12 07:41:21 | 51.9850 | 0.00012 | 8.2794 | 116.6141 | 226.8071 | 12.62266 | 7.500 |
| 2026 Apr 11 17:57 | 2026 Apr 11 10:47:05 | 51.9850 | 0.00012 | 8.4562 | 115.5658 | 226.8071 | 12.62266 | 7.500 |
| 2026 Apr 10 17:58 | 2026 Apr 10 00:34:39 | 51.9852 | 0.00012 | 8.7456 | 114.1783 | 226.8071 | 12.62266 | 7.500 |
| 2026 Apr 09 18:01 | 2026 Apr 09 01:46:22 | 51.9853 | 0.00012 | 8.9386 | 113.1179 | 226.8071 | 12.62266 | 7.500 |
| 2026 Apr 08 17:57 | 2026 Apr 08 02:58:04 | 51.9855 | 0.00012 | 9.1315 | 111.7070 | 226.8071 | 12.62266 | 7.500 |
| 2026 Apr 07 17:57 | 2026 Apr 07 02:15:46 | 51.9853 | 0.00012 | 9.3405 | 110.6659 | 226.8071 | 12.62266 | 7.500 |
| 2026 Apr 06 17:57 | 2026 Apr 06 03:27:28 | 51.9856 | 0.00012 | 9.5334 | 109.3834 | 226.8071 | 12.62266 | 7.500 |
| 2026 Apr 05 17:56 | 2026 Apr 05 10:21:15 | 51.9857 | 0.00012 | 9.6781 | 108.6082 | 226.8071 | 12.62266 | 7.500 |
| 2026 Apr 04 17:57 | 2026 Apr 04 02:02:51 | 51.9860 | 0.00013 | 9.9514 | 106.9045 | 226.8071 | 12.62266 | 7.500 |